Record high temperature 36.9°C Record low temperature 10.3°C Record high gust 66.0 km/h Record high average 48.1 km/h Record daily rain 22.9 mm Record low windchill 1.3°C Record high barometer 1023.4 hPa Record low barometer 997.3 hPa
Daily high pressure 1011.2 hPa Daily low pressure 1001.2 hPa Daily low windchill 13.3°C Daily high heat index 16.0°C Daily high gust speed 29.6 kmh E Daily high average speed 20.5 kmh E
Stazione meteo Crema centro
LAST READING AT TIME: 17:55 DATE: 30 September 2022, time of next update: 18:00
Current WeatherModerate drizzle Current Temperature 15.3°C (59.6°F), Apparent temp 15.9°C, Apparent temp solar 17.9°C
Maximum Temperature (since midnight)16.0°C at: 11:44 Minimum Temperature (since midnight)13.3°C at: 05:36
Average windspeed (ten minute)0.0 kmh (0.0 kts) Wind Direction (ten minute)E (90°)
Windchill Temperature 15.3°C Maximum Gust (last hour)17.7 kmh (9.6 kts) at: 17:18
Maximum Gust (since midnight)29.6 kmh (16.0 kts) at: 04:47 Maximum 1 minute average (since midnight)20.5 kmh (11.1 kts) at: 13:52
Rainfall (last hour)0.8 mm Rainfall (since midnight)3.3 mm (0.13 in.) at 17:50
Rainfall This month 21.3 mm (0.84 in.) Rainfall To date this year 179.3 mm (7.06 in.)
Maximum rain per minute (last hour)0.3 mm/min Maximum rain per hour (last 6 hours)0.8 mm/hour
Yesterdays rainfall 7.1 mm DewPoint 11.3°C (Wet Bulb :13.2°C )
Humidity 77 %, Humidex 17.3°C Barometer corrected to msl1011.1 hPa
Pressure change +0.6 hPa (last hour) Trend (last hour)RISING SLOWLY
Pressure change (last 12 hours)+7.5 hPa Pressure change (last 6 hours)+2.4 hPa
Current Solar 11 W/mē
Maximum solar (since midnight) 531 W/mē Minimum solar (since midnight)0 W/mē
Current 00:57 hours of sunshine today, current sky: Overcast and gloomy
Sunshine hours for the year: 571:51 hrs Sunshine hours for the month: 87:54 hrs
Current evapotranspiration rate 1.4 mm per day. Yesterday's reading 2.2

This page is updated from recent data collected by a DAVIS VANTAGE PRO weather station Use the Reload or Refresh facility on your browser to retrieve the latest data.

Status report of weather station: IK2CHZ - Crema meteo



Weather report/warning/Metars

Milano / Linate, Italy (LIML) 45-26N 009-17E 103M
Sep 30, 2022 - 11:20 AM EDT / 2022.09.30 1520 UTC
Wind: from the E (080 degrees) at 6 MPH (5 KT) (direction variable):0
Visibility: greater than 7 mile(s):0
Sky conditions: mostly cloudy
Weather: light drizzle
Temperature: 60 F (16 C)
Dew Point: 57 F (14 C)
Relative Humidity: 87%
Pressure (altimeter): 29.85 in. Hg (1011 hPa)
ob: LIML 301520Z 08005KT 050V110 9999 -DZ SCT020 BKN060 16/14 Q1011 NOSIG
cycle: 15
Bergamo / Orio Al Serio, Italy (LIME) 45-40N 009-42E 237M
Sep 30, 2022 - 11:20 AM EDT / 2022.09.30 1520 UTC
Wind: from the E (090 degrees) at 3 MPH (3 KT) (direction variable):0
Visibility: greater than 7 mile(s):0
Sky conditions: mostly cloudy
Weather: light rain
Temperature: 60 F (16 C)
Dew Point: 55 F (13 C)
Relative Humidity: 82%
Pressure (altimeter): 29.85 in. Hg (1011 hPa)
ob: LIME 301520Z 09003KT 060V120 9999 -RA SCT015 BKN050 16/13 Q1011 NOSIG
cycle: 15
Piacenza, Italy (LIMS) 44-55N 009-44E 138M
Sep 30, 2022 - 10:55 AM EDT / 2022.09.30 1455 UTC
Wind: from the SSE (150 degrees) at 3 MPH (3 KT):0
Visibility: greater than 7 mile(s):0
Sky conditions: mostly cloudy
Weather: light rain
Temperature: 59 F (15 C)
Dew Point: 59 F (15 C)
Relative Humidity: 100%
Pressure (altimeter): 29.80 in. Hg (1009 hPa)
ob: LIMS 301455Z 15003KT 9999 -RA BKN035 SCT060 15/15 Q1009
cycle: 15